VOBZ/VGA METAR and TAF weather

Enter ICAO airport designator
Station Type Date Time Source
VOBZ METAR 2020/07/10 16:30 UTC NOAA

VOBZ 101630Z 28004KT 4000 HZ FEW020 FEW030CB SCT100 28/26 Q1005 TEMPO 3000 -TSRA


Station Type Date Time Source
VOBZ Decoded METAR 2020/07/10 16:30 UTC NOAA

Vijayawada / Gannavaram, India (VOBZ) 16-32N 080-48E 24M
Jul 10, 2020 - 12:30 PM EDT / 2020.07.10 1630 UTC
Wind: from the W (280 degrees) at 5 MPH (4 KT):0
Visibility: 2 mile(s):0
Sky conditions: partly cloudy
Weather: haze; Cumulonimbus clouds observed
Temperature: 82 F (28 C)
Dew Point: 78 F (26 C)
Relative Humidity: 88%
Pressure (altimeter): 29.68 in. Hg (1005 hPa)
ob: VOBZ 101630Z 28004KT 4000 HZ FEW020 FEW030CB SCT100 28/26 Q1005 TEMPO 3000 -TSRA
cycle: 16

Station Type Date Time Source
VOBZ TAF 2020/04/22 09:00 UTC NOAA

TAF VOBZ 220800Z 2209/2218 20006KT 6000 SCT020 SCT025

Example: see airport list